Time;durP1;ratioP1;P1;durP2;ratioP2;P2;SDS_P1;SDS_P2;PMS_P1;PMS_P2;Temp;Humidity;BMP_temperature;BMP_pressure;BME280_temperature;BME280_humidity;BME280_pressure;Samples;Min_cycle;Max_cycle;Signal;HPM_P1;HPM_P2
2022/03/14 00:00:10;;;;;;;1.30;0.80;;;9.90;99.90;;;;;;5091812;28;20580;-75
2022/03/14 00:02:36;;;;;;;0.53;0.53;;;9.90;99.90;;;;;;5091220;28;20697;-74
2022/03/14 00:05:04;;;;;;;0.10;0.10;;;9.80;99.90;;;;;;5091323;28;20167;-74
2022/03/14 00:07:31;;;;;;;0.93;0.80;;;9.70;99.90;;;;;;5091370;28;20190;-75
2022/03/14 00:09:57;;;;;;;1.60;1.13;;;9.60;99.90;;;;;;5091540;28;20588;-75
2022/03/14 00:12:25;;;;;;;0.10;0.10;;;9.70;99.90;;;;;;5091202;28;20221;-75
2022/03/14 00:14:53;;;;;;;1.90;1.07;;;9.50;99.90;;;;;;5091673;28;20191;-75
2022/03/14 00:17:19;;;;;;;1.23;0.20;;;9.30;99.90;;;;;;5091399;28;20187;-75
2022/03/14 00:19:46;;;;;;;0.23;0.17;;;9.20;99.90;;;;;;5091277;28;20171;-76
2022/03/14 00:22:15;;;;;;;0.53;0.53;;;9.10;99.90;;;;;;5090961;28;20206;-75
2022/03/14 00:24:41;;;;;;;0.30;0.30;;;9.10;99.90;;;;;;5091459;28;20172;-75
2022/03/14 00:27:07;;;;;;;1.00;0.83;;;9.20;99.90;;;;;;5091624;28;20171;-76
2022/03/14 00:29:32;;;;;;;1.77;0.50;;;9.20;99.90;;;;;;5091436;28;20629;-75
2022/03/14 00:32:00;;;;;;;0.93;0.93;;;9.20;99.90;;;;;;5090750;28;20237;-75
2022/03/14 00:34:25;;;;;;;0.60;0.60;;;9.30;99.90;;;;;;5091522;28;20169;-76
2022/03/14 00:36:51;;;;;;;0.30;0.30;;;9.30;99.90;;;;;;5091273;28;20176;-75
2022/03/14 00:39:17;;;;;;;0.27;0.27;;;9.30;99.90;;;;;;5091420;28;20664;-75
2022/03/14 00:41:42;;;;;;;0.23;0.23;;;9.20;99.90;;;;;;5090574;28;20196;-75
2022/03/14 00:44:08;;;;;;;5.20;0.63;;;9.20;99.90;;;;;;5091305;28;20176;-75
2022/03/14 00:46:37;;;;;;;0.10;0.10;;;9.20;99.90;;;;;;5091172;28;20178;-75
2022/03/14 00:49:02;;;;;;;0.23;0.23;;;9.20;99.90;;;;;;5091201;28;20180;-75
2022/03/14 00:51:28;;;;;;;0.27;0.27;;;9.30;99.90;;;;;;5090907;28;20209;-75
2022/03/14 00:53:53;;;;;;;0.33;0.33;;;9.30;99.90;;;;;;5091185;28;20179;-75
2022/03/14 00:56:20;;;;;;;0.13;0.13;;;9.40;99.90;;;;;;5091209;28;20663;-75
2022/03/14 00:58:45;;;;;;;1.03;0.57;;;9.50;99.90;;;;;;5091200;28;20254;-75
2022/03/14 01:01:11;;;;;;;0.20;0.20;;;9.50;99.90;;;;;;5090823;28;20622;-75
2022/03/14 01:03:37;;;;;;;0.10;0.10;;;9.60;99.90;;;;;;5090721;28;20182;-75
2022/03/14 01:06:03;;;;;;;0.20;0.20;;;9.60;99.90;;;;;;5091078;28;20259;-74
2022/03/14 01:08:29;;;;;;;0.30;0.30;;;9.60;99.90;;;;;;5095741;28;20207;-73
2022/03/14 01:10:55;;;;;;;1.10;0.33;;;9.60;99.90;;;;;;5093313;28;20577;-75
2022/03/14 01:13:20;;;;;;;0.50;0.50;;;9.60;99.90;;;;;;5090857;28;20650;-77
2022/03/14 01:15:47;;;;;;;1.23;1.03;;;9.60;99.90;;;;;;5090861;28;20175;-76
2022/03/14 01:18:13;;;;;;;0.30;0.30;;;9.60;99.90;;;;;;5089571;28;20178;-75
2022/03/14 01:20:40;;;;;;;0.30;0.30;;;9.50;99.90;;;;;;5090792;28;20196;-75
2022/03/14 01:23:05;;;;;;;1.30;1.30;;;9.50;99.90;;;;;;5092938;28;20297;-75
2022/03/14 01:25:31;;;;;;;2.80;1.47;;;9.50;99.90;;;;;;5094547;28;20219;-75
2022/03/14 01:27:57;;;;;;;0.10;0.10;;;9.40;99.90;;;;;;5094687;28;20703;-79
2022/03/14 01:30:22;;;;;;;0.43;0.43;;;9.30;99.90;;;;;;5094369;28;20311;-76
2022/03/14 01:32:49;;;;;;;0.47;0.30;;;9.20;99.90;;;;;;5094293;28;20647;-75
2022/03/14 01:35:17;;;;;;;1.83;1.80;;;9.10;99.90;;;;;;5093156;28;20670;-75
2022/03/14 01:37:43;;;;;;;0.50;0.50;;;9.10;99.90;;;;;;5093388;28;20187;-75
2022/03/14 01:40:09;;;;;;;0.20;0.20;;;9.00;99.90;;;;;;5094366;28;20188;-75
2022/03/14 01:42:36;;;;;;;0.10;0.10;;;9.00;99.90;;;;;;5092594;28;20211;-75
2022/03/14 01:45:04;;;;;;;1.60;1.13;;;8.90;99.90;;;;;;5092780;28;20650;-78
2022/03/14 01:47:30;;;;;;;0.20;0.20;;;8.80;99.90;;;;;;5094258;28;20237;-76
2022/03/14 01:49:56;;;;;;;2.03;0.40;;;8.90;99.90;;;;;;5094535;28;20172;-76
2022/03/14 01:52:22;;;;;;;1.50;0.63;;;8.90;99.90;;;;;;5094468;28;20245;-77
2022/03/14 01:54:48;;;;;;;0.50;0.50;;;8.90;99.90;;;;;;5093090;28;20613;-77
2022/03/14 01:57:13;;;;;;;4.40;1.60;;;8.90;99.90;;;;;;5094060;28;20178;-77
2022/03/14 01:59:40;;;;;;;0.10;0.10;;;8.90;99.90;;;;;;5093611;28;20275;-75
2022/03/14 02:02:05;;;;;;;3.17;1.23;;;8.90;99.90;;;;;;5093357;28;20215;-76
2022/03/14 02:04:31;;;;;;;0.20;0.20;;;8.90;99.90;;;;;;5093657;28;20175;-75
2022/03/14 02:06:57;;;;;;;0.47;0.47;;;8.90;99.90;;;;;;5094005;28;20616;-75
2022/03/14 02:09:23;;;;;;;0.43;0.43;;;8.90;99.90;;;;;;5093943;28;20172;-75
2022/03/14 02:11:54;;;;;;;0.13;0.13;;;8.90;99.90;;;;;;5113158;22;20357;-75
2022/03/14 02:14:21;;;;;;;0.83;0.80;;;8.90;99.90;;;;;;5093696;28;20176;-79
2022/03/14 02:16:46;;;;;;;0.73;0.70;;;8.90;99.90;;;;;;5075425;28;20275;-77
2022/03/14 02:19:12;;;;;;;0.67;0.67;;;8.80;99.90;;;;;;5075454;28;20202;-77
2022/03/14 02:21:38;;;;;;;1.03;0.80;;;8.80;99.90;;;;;;5067344;28;20205;-76
2022/03/14 02:24:04;;;;;;;0.20;0.20;;;8.70;99.90;;;;;;5073430;28;20192;-76
2022/03/14 02:26:29;;;;;;;0.63;0.63;;;8.70;99.90;;;;;;5073117;28;20184;-77
2022/03/14 02:28:55;;;;;;;0.30;0.30;;;8.70;99.90;;;;;;5055137;28;20227;-77
2022/03/14 02:31:20;;;;;;;0.67;0.67;;;8.70;99.90;;;;;;5072629;28;20200;-77
2022/03/14 02:33:46;;;;;;;0.63;0.63;;;8.60;99.90;;;;;;5054730;28;20184;-75
2022/03/14 02:36:11;;;;;;;0.93;0.40;;;8.60;99.90;;;;;;5054574;28;20176;-76
2022/03/14 02:38:37;;;;;;;0.10;0.10;;;8.60;99.90;;;;;;5072674;28;20263;-76
2022/03/14 02:41:02;;;;;;;0.80;0.80;;;8.50;99.90;;;;;;5072574;28;20200;-76
2022/03/14 02:43:28;;;;;;;1.73;1.40;;;8.50;99.90;;;;;;5072448;28;20188;-78
2022/03/14 02:45:54;;;;;;;1.10;1.00;;;8.50;99.90;;;;;;5072829;28;20177;-76
2022/03/14 02:48:21;;;;;;;0.30;0.30;;;8.50;99.90;;;;;;5054675;28;20176;-76
2022/03/14 02:50:49;;;;;;;1.23;1.20;;;8.50;99.90;;;;;;5072619;28;20552;-75
2022/03/14 02:53:15;;;;;;;0.53;0.53;;;8.50;99.90;;;;;;5072275;28;20184;-76
2022/03/14 02:55:41;;;;;;;1.47;1.37;;;8.50;99.90;;;;;;5072468;28;20828;-75
2022/03/14 02:58:07;;;;;;;0.23;0.23;;;8.40;99.90;;;;;;5072444;28;20219;-76
2022/03/14 03:00:35;;;;;;;0.53;0.53;;;8.40;99.90;;;;;;5072875;28;20199;-75
2022/03/14 03:03:02;;;;;;;1.23;1.07;;;8.40;99.90;;;;;;5071997;28;20235;-76
2022/03/14 03:05:30;;;;;;;1.70;0.30;;;8.40;99.90;;;;;;5054442;28;20757;-77
2022/03/14 03:07:59;;;;;;;0.90;0.53;;;8.40;99.90;;;;;;5072195;28;20188;-74
2022/03/14 03:10:25;;;;;;;0.83;0.83;;;8.40;99.90;;;;;;5071966;28;20257;-74
2022/03/14 03:12:52;;;;;;;4.83;1.73;;;8.40;99.90;;;;;;5071750;28;20231;-74
2022/03/14 03:15:19;;;;;;;0.30;0.30;;;8.50;99.90;;;;;;5072187;28;20191;-74
2022/03/14 03:17:44;;;;;;;0.30;0.30;;;8.40;99.90;;;;;;5072020;28;20195;-74
2022/03/14 03:20:10;;;;;;;1.53;1.47;;;8.40;99.90;;;;;;5054140;28;20275;-75
2022/03/14 03:22:38;;;;;;;0.87;0.87;;;8.40;99.90;;;;;;5071784;28;20299;-76
2022/03/14 03:25:05;;;;;;;1.40;0.73;;;8.40;99.90;;;;;;5071860;28;20180;-75
2022/03/14 03:27:32;;;;;;;0.83;0.57;;;8.40;99.90;;;;;;5071801;28;20187;-76
2022/03/14 03:29:58;;;;;;;0.70;0.70;;;8.40;99.90;;;;;;5071841;28;20200;-74
2022/03/14 03:32:23;;;;;;;0.77;0.77;;;8.40;99.90;;;;;;5071576;28;20205;-76
2022/03/14 03:34:50;;;;;;;0.60;0.60;;;8.40;99.90;;;;;;5071704;28;20245;-76
2022/03/14 03:37:15;;;;;;;0.10;0.10;;;8.40;99.90;;;;;;5064510;28;20234;-74
2022/03/14 03:39:41;;;;;;;0.90;0.90;;;8.40;99.90;;;;;;5066340;28;20617;-77
2022/03/14 03:42:07;;;;;;;11.73;0.97;;;8.40;99.90;;;;;;5071270;28;20214;-76
2022/03/14 03:44:32;;;;;;;0.20;0.20;;;8.50;99.90;;;;;;5053455;28;20185;-77
2022/03/14 03:46:58;;;;;;;0.10;0.10;;;8.40;99.90;;;;;;5053672;28;20187;-77
2022/03/14 03:49:23;;;;;;;1.90;1.80;;;8.40;99.90;;;;;;5053910;28;20180;-76
2022/03/14 03:51:49;;;;;;;0.33;0.33;;;8.50;99.90;;;;;;5071615;28;20211;-76
2022/03/14 03:54:15;;;;;;;1.17;1.17;;;8.40;99.90;;;;;;5071792;28;20188;-77
2022/03/14 03:56:41;;;;;;;1.00;1.00;;;8.40;99.90;;;;;;5054065;28;20187;-76
2022/03/14 03:59:07;;;;;;;0.40;0.40;;;8.40;99.90;;;;;;5053741;28;20571;-77
2022/03/14 04:01:32;;;;;;;0.60;0.60;;;8.40;99.90;;;;;;5070976;28;20208;-76
2022/03/14 04:03:59;;;;;;;1.37;1.37;;;8.40;99.90;;;;;;5071941;28;20658;-76
2022/03/14 04:06:27;;;;;;;0.20;0.20;;;8.40;99.90;;;;;;5071865;28;20188;-76
2022/03/14 04:08:54;;;;;;;0.43;0.43;;;8.30;99.90;;;;;;5053555;28;20184;-77
2022/03/14 04:11:20;;;;;;;0.73;0.73;;;8.30;99.90;;;;;;5053500;28;20222;-74
2022/03/14 04:13:47;;;;;;;0.30;0.30;;;8.30;99.90;;;;;;5072176;28;20271;-76
2022/03/14 04:16:17;;;;;;;0.67;0.67;;;8.30;99.90;;;;;;5071288;28;20180;-77
2022/03/14 04:18:43;;;;;;;0.60;0.60;;;8.30;99.90;;;;;;5071291;28;20184;-76
2022/03/14 04:21:09;;;;;;;2.60;1.37;;;8.30;99.90;;;;;;5071255;28;20207;-76
2022/03/14 04:23:35;;;;;;;0.77;0.77;;;8.30;99.90;;;;;;5071004;28;20185;-76
2022/03/14 04:26:00;;;;;;;0.10;0.10;;;8.30;99.90;;;;;;5071295;28;20598;-75
2022/03/14 04:28:26;;;;;;;3.20;0.63;;;8.20;99.90;;;;;;5070985;28;20180;-76
2022/03/14 04:30:52;;;;;;;1.13;1.03;;;8.20;99.90;;;;;;5071052;28;20589;-73
2022/03/14 04:33:17;;;;;;;0.60;0.60;;;8.30;99.90;;;;;;5052862;28;20237;-78
2022/03/14 04:35:43;;;;;;;2.37;2.17;;;8.20;99.90;;;;;;5070664;28;20310;-76
2022/03/14 04:38:08;;;;;;;0.83;0.73;;;8.20;99.90;;;;;;5052939;28;20172;-76
2022/03/14 04:40:35;;;;;;;0.10;0.10;;;8.10;99.90;;;;;;5071300;28;20180;-77
2022/03/14 04:43:08;;;;;;;0.27;0.23;;;8.10;99.90;;;;;;5070768;28;20290;-75
2022/03/14 04:45:36;;;;;;;2.23;2.10;;;8.10;99.90;;;;;;5071038;28;20774;-77
2022/03/14 04:48:03;;;;;;;1.53;1.43;;;8.10;99.90;;;;;;5070951;28;20173;-75
2022/03/14 04:50:29;;;;;;;0.37;0.33;;;8.10;99.90;;;;;;5071135;28;20249;-78
2022/03/14 04:52:54;;;;;;;1.20;1.07;;;8.10;99.90;;;;;;5052883;28;20212;-76
2022/03/14 04:55:20;;;;;;;0.10;0.10;;;8.10;99.90;;;;;;5071114;28;20213;-77
2022/03/14 04:57:46;;;;;;;0.03;0.03;;;8.10;99.90;;;;;;5074470;28;20540;-76
2022/03/14 05:00:12;;;;;;;0.40;0.40;;;8.00;99.90;;;;;;5074838;28;20654;-77
2022/03/14 05:02:38;;;;;;;1.70;1.10;;;8.10;99.90;;;;;;5074083;28;20279;-76
2022/03/14 05:05:04;;;;;;;3.80;0.53;;;8.00;99.90;;;;;;5075033;28;20179;-77
2022/03/14 05:07:29;;;;;;;0.20;0.20;;;8.00;99.90;;;;;;5056568;28;20800;-76
2022/03/14 05:09:55;;;;;;;3.60;0.37;;;8.00;99.90;;;;;;5056684;28;20181;-76
2022/03/14 05:12:20;;;;;;;0.37;0.37;;;8.00;99.90;;;;;;5056416;28;20274;-76
2022/03/14 05:14:49;;;;;;;1.03;1.03;;;8.00;99.90;;;;;;5074564;28;20226;-77
2022/03/14 05:17:14;;;;;;;1.63;0.93;;;8.00;99.90;;;;;;5056655;28;20754;-78
2022/03/14 05:19:40;;;;;;;0.10;0.10;;;7.90;99.90;;;;;;5074630;28;20262;-78
2022/03/14 05:22:05;;;;;;;0.83;0.53;;;7.90;99.90;;;;;;5074025;28;20695;-78
2022/03/14 05:24:31;;;;;;;0.40;0.40;;;8.00;99.90;;;;;;5084440;28;20183;-78
2022/03/14 05:26:57;;;;;;;0.30;0.30;;;8.00;99.90;;;;;;5078306;28;20184;-77
2022/03/14 05:29:23;;;;;;;0.93;0.93;;;8.00;99.90;;;;;;5074147;28;20203;-76
2022/03/14 05:31:48;;;;;;;0.63;0.63;;;8.00;99.90;;;;;;5073481;28;20211;-77
2022/03/14 05:34:14;;;;;;;0.10;0.10;;;7.90;99.90;;;;;;5079174;28;20183;-77
2022/03/14 05:36:40;;;;;;;0.10;0.10;;;7.90;99.90;;;;;;5073973;28;20180;-78
2022/03/14 05:39:06;;;;;;;2.03;1.07;;;7.90;99.90;;;;;;5074738;28;20647;-76
2022/03/14 05:41:32;;;;;;;1.20;1.00;;;7.90;99.90;;;;;;5057833;28;20278;-76
2022/03/14 05:43:57;;;;;;;1.10;0.73;;;7.80;99.90;;;;;;5080166;28;20208;-76
2022/03/14 05:46:23;;;;;;;0.30;0.30;;;7.90;99.90;;;;;;5055931;28;20559;-76
2022/03/14 05:48:49;;;;;;;0.20;0.20;;;7.80;99.90;;;;;;5074468;28;20176;-76
2022/03/14 05:51:14;;;;;;;1.57;1.43;;;7.90;99.90;;;;;;5057251;28;20206;-76
2022/03/14 05:53:40;;;;;;;0.93;0.77;;;7.80;99.90;;;;;;5078351;28;20230;-75
2022/03/14 05:56:06;;;;;;;0.10;0.10;;;7.90;99.90;;;;;;5081060;28;20192;-77
2022/03/14 05:58:31;;;;;;;0.90;0.90;;;7.90;99.90;;;;;;5064569;28;20199;-78
2022/03/14 06:00:57;;;;;;;0.20;0.20;;;7.90;99.90;;;;;;5050018;28;20185;-76
2022/03/14 06:03:23;;;;;;;1.00;0.30;;;7.90;99.90;;;;;;5063294;28;20525;-78
2022/03/14 06:05:49;;;;;;;0.10;0.10;;;7.80;99.90;;;;;;5074183;28;20740;-78
2022/03/14 06:08:15;;;;;;;0.00;0.00;;;7.80;99.90;;;;;;5073789;28;20170;-76
2022/03/14 06:10:42;;;;;;;0.63;0.57;;;7.80;99.90;;;;;;5060694;28;20322;-76
2022/03/14 06:13:08;;;;;;;0.07;0.07;;;7.80;99.90;;;;;;5073621;28;20216;-77
2022/03/14 06:15:34;;;;;;;0.10;0.10;;;7.80;99.90;;;;;;5073425;28;20173;-76
2022/03/14 06:17:59;;;;;;;0.87;0.87;;;7.90;99.90;;;;;;5073494;28;20184;-76
2022/03/14 06:20:25;;;;;;;1.37;0.73;;;7.90;99.90;;;;;;5055500;28;20180;-74
2022/03/14 06:22:50;;;;;;;0.50;0.50;;;7.90;99.90;;;;;;5072935;28;20221;-76
2022/03/14 06:25:19;;;;;;;0.53;0.40;;;7.90;99.90;;;;;;5073306;28;20204;-77
2022/03/14 06:27:45;;;;;;;0.80;0.80;;;7.90;99.90;;;;;;5073703;28;20164;-78
2022/03/14 06:30:11;;;;;;;0.30;0.30;;;7.90;99.90;;;;;;5073570;28;20203;-79
2022/03/14 06:32:38;;;;;;;0.20;0.20;;;7.90;99.90;;;;;;5072757;28;20192;-79
2022/03/14 06:35:05;;;;;;;2.07;1.97;;;7.90;99.90;;;;;;5073138;28;20211;-78
2022/03/14 06:37:31;;;;;;;0.70;0.70;;;7.90;99.90;;;;;;5055818;28;20241;-78
2022/03/14 06:39:57;;;;;;;2.00;1.70;;;7.90;99.90;;;;;;5073012;28;20208;-78
2022/03/14 06:42:23;;;;;;;2.00;1.40;;;7.90;99.90;;;;;;5057742;28;20235;-78
2022/03/14 06:44:50;;;;;;;0.23;0.23;;;7.90;99.90;;;;;;5075356;28;20183;-77
2022/03/14 06:47:19;;;;;;;0.10;0.10;;;8.00;99.90;;;;;;5073969;28;20173;-77
2022/03/14 06:49:45;;;;;;;0.10;0.10;;;8.00;99.90;;;;;;5056206;28;20613;-77
2022/03/14 06:52:12;;;;;;;1.13;1.07;;;8.00;99.90;;;;;;5073524;28;20283;-77
2022/03/14 06:54:38;;;;;;;0.23;0.23;;;8.00;99.90;;;;;;5074034;28;20237;-77
2022/03/14 06:57:04;;;;;;;1.30;1.20;;;8.00;99.90;;;;;;5073044;28;20260;-77
2022/03/14 06:59:30;;;;;;;0.50;0.50;;;8.00;99.90;;;;;;5055236;28;20184;-77
2022/03/14 07:01:56;;;;;;;0.57;0.57;;;8.10;99.90;;;;;;5072717;28;20249;-77
2022/03/14 07:04:21;;;;;;;1.23;0.67;;;8.10;99.90;;;;;;5072936;28;20229;-77
2022/03/14 07:06:47;;;;;;;1.17;1.17;;;8.10;99.90;;;;;;5055192;28;20184;-76
2022/03/14 07:09:12;;;;;;;0.67;0.67;;;8.10;99.90;;;;;;5073062;28;20173;-78
2022/03/14 07:11:38;;;;;;;2.07;1.57;;;8.10;99.90;;;;;;5072116;28;20629;-78
2022/03/14 07:14:03;;;;;;;0.20;0.20;;;8.20;99.90;;;;;;5072620;28;20177;-77
2022/03/14 07:16:29;;;;;;;0.63;0.63;;;8.20;99.90;;;;;;5072867;28;20259;-77
2022/03/14 07:18:55;;;;;;;0.50;0.50;;;8.20;99.90;;;;;;5054146;28;20191;-77
2022/03/14 07:21:22;;;;;;;3.40;1.30;;;8.20;99.90;;;;;;5054629;28;20211;-77
2022/03/14 07:23:47;;;;;;;6.23;2.30;;;8.30;99.90;;;;;;5058223;28;20182;-76
2022/03/14 07:26:14;;;;;;;0.13;0.13;;;8.30;99.90;;;;;;5064585;28;20263;-76
2022/03/14 07:28:39;;;;;;;0.83;0.83;;;8.30;99.90;;;;;;5072655;28;20562;-78
2022/03/14 07:31:05;;;;;;;0.53;0.53;;;8.40;99.90;;;;;;5054667;28;20204;-78
2022/03/14 07:33:31;;;;;;;0.90;0.90;;;8.40;99.90;;;;;;5072754;28;20188;-78
2022/03/14 07:35:57;;;;;;;0.87;0.87;;;8.40;99.90;;;;;;5073108;28;20188;-78
2022/03/14 07:38:22;;;;;;;0.20;0.20;;;8.50;99.90;;;;;;5073073;28;20270;-77
2022/03/14 07:40:48;;;;;;;0.30;0.30;;;8.50;99.90;;;;;;5062477;28;20181;-79
2022/03/14 07:43:13;;;;;;;21.53;0.63;;;8.50;99.90;;;;;;5068419;28;20571;-78
2022/03/14 07:45:39;;;;;;;0.20;0.20;;;8.60;99.90;;;;;;5072699;28;20330;-80
2022/03/14 07:48:05;;;;;;;0.10;0.10;;;8.70;99.90;;;;;;5072678;28;20176;-78
2022/03/14 07:50:31;;;;;;;0.00;0.00;;;8.80;99.90;;;;;;5072654;28;20849;-78
2022/03/14 07:52:57;;;;;;;0.40;0.40;;;8.90;99.90;;;;;;5054641;28;20208;-78
2022/03/14 07:55:24;;;;;;;0.20;0.20;;;9.00;99.90;;;;;;5072096;28;20508;-78
2022/03/14 07:57:49;;;;;;;1.53;1.00;;;9.00;99.90;;;;;;5059044;28;20673;-77
2022/03/14 08:00:18;;;;;;;0.27;0.27;;;9.00;99.90;;;;;;5072368;28;20181;-79
2022/03/14 08:02:45;;;;;;;3.20;1.43;;;9.20;99.90;;;;;;5054107;28;20212;-79
2022/03/14 08:05:16;;;;;;;0.33;0.33;;;9.20;99.90;;;;;;5072277;28;20188;-79
2022/03/14 08:07:46;;;;;;;0.57;0.57;;;9.30;99.90;;;;;;5041189;28;20228;-77
2022/03/14 08:10:14;;;;;;;0.20;0.20;;;9.40;99.90;;;;;;5072628;28;20687;-78
2022/03/14 08:12:49;;;;;;;10.87;1.90;;;9.50;99.90;;;;;;5109042;22;20236;-81
2022/03/14 08:15:31;;;;;;;1.03;1.03;;;9.60;99.90;;;;;;5076514;28;20168;-80
2022/03/14 08:18:02;;;;;;;0.33;0.33;;;9.60;99.90;;;;;;5063702;28;20695;-79
2022/03/14 08:20:28;;;;;;;0.27;0.27;;;9.60;99.90;;;;;;5076839;28;20203;-80
2022/03/14 08:22:55;;;;;;;0.03;0.03;;;9.60;99.90;;;;;;5074845;28;20342;-79
2022/03/14 08:25:21;;;;;;;0.40;0.40;;;9.60;99.90;;;;;;5089879;28;20191;-79
2022/03/14 08:27:47;;;;;;;0.20;0.20;;;9.70;99.90;;;;;;5077197;28;20176;-78
2022/03/14 08:30:14;;;;;;;13.73;2.20;;;9.80;99.90;;;;;;5077843;28;20226;-78
2022/03/14 08:32:40;;;;;;;0.30;0.30;;;9.90;99.90;;;;;;5075110;28;20283;-80
2022/03/14 08:35:08;;;;;;;3.40;0.60;;;9.90;99.90;;;;;;5084202;28;20212;-77
2022/03/14 08:37:38;;;;;;;0.20;0.20;;;10.10;99.90;;;;;;5081265;28;20176;-79
2022/03/14 08:40:06;;;;;;;0.40;0.40;;;10.30;99.90;;;;;;5078074;28;20193;-79
2022/03/14 08:42:32;;;;;;;0.40;0.40;;;10.30;99.90;;;;;;5078814;28;20299;-78
2022/03/14 08:44:57;;;;;;;0.23;0.23;;;10.30;99.90;;;;;;5077646;28;20716;-78
2022/03/14 08:47:24;;;;;;;0.10;0.10;;;10.50;99.90;;;;;;5078732;28;20196;-80
2022/03/14 08:49:50;;;;;;;0.37;0.37;;;10.50;99.90;;;;;;5079134;28;20512;-79
2022/03/14 08:52:16;;;;;;;22.47;1.70;;;10.70;99.90;;;;;;5077608;28;20196;-79
2022/03/14 08:54:42;;;;;;;1.90;1.80;;;11.00;99.90;;;;;;5079559;28;20172;-77
2022/03/14 08:57:07;;;;;;;0.20;0.20;;;11.10;99.90;;;;;;5079307;28;20185;-79
2022/03/14 08:59:33;;;;;;;1.40;1.03;;;11.20;99.90;;;;;;5077440;28;20184;-79
2022/03/14 09:01:58;;;;;;;1.90;0.97;;;11.20;99.90;;;;;;5077819;28;20260;-79
2022/03/14 09:04:24;;;;;;;0.80;0.80;;;11.10;99.90;;;;;;5076966;28;20176;-79
2022/03/14 09:06:49;;;;;;;1.53;0.60;;;11.10;99.90;;;;;;5075992;28;20188;-79
2022/03/14 09:09:15;;;;;;;0.13;0.13;;;11.10;99.90;;;;;;5076951;28;20186;-79
2022/03/14 09:11:40;;;;;;;2.47;0.77;;;10.90;99.90;;;;;;5076486;28;20208;-79
2022/03/14 09:14:06;;;;;;;1.13;0.87;;;10.90;99.90;;;;;;5076659;28;20828;-79
2022/03/14 09:16:35;;;;;;;2.03;0.83;;;10.80;99.90;;;;;;5076536;28;20184;-79
2022/03/14 09:19:00;;;;;;;1.90;0.77;;;10.70;99.90;;;;;;5076249;28;20267;-79
2022/03/14 09:21:27;;;;;;;0.40;0.40;;;10.90;99.90;;;;;;5074444;28;20283;-79
2022/03/14 09:23:53;;;;;;;0.30;0.30;;;10.90;99.90;;;;;;5074619;28;20184;-79
2022/03/14 09:26:19;;;;;;;0.20;0.20;;;10.90;99.90;;;;;;5076412;28;20180;-78
2022/03/14 09:28:44;;;;;;;4.03;1.83;;;11.00;99.90;;;;;;5074728;28;20202;-77
2022/03/14 09:31:14;;;;;;;0.97;0.97;;;11.00;99.90;;;;;;5076432;28;20168;-78
2022/03/14 09:33:39;;;;;;;0.57;0.57;;;11.10;99.90;;;;;;5075700;28;20186;-79
2022/03/14 09:36:06;;;;;;;1.70;1.03;;;11.20;99.90;;;;;;5074651;28;20191;-79
2022/03/14 09:38:32;;;;;;;1.20;0.70;;;11.30;99.90;;;;;;5076051;28;20189;-79
2022/03/14 09:41:03;;;;;;;0.10;0.10;;;11.40;99.90;;;;;;5075752;28;20266;-79
2022/03/14 09:43:30;;;;;;;0.70;0.50;;;11.60;99.90;;;;;;5075086;28;20192;-78
2022/03/14 09:45:58;;;;;;;1.83;1.03;;;11.80;99.90;;;;;;5074402;28;20599;-79
2022/03/14 09:48:24;;;;;;;1.70;1.60;;;12.10;99.90;;;;;;5076118;28;20528;-79
2022/03/14 09:50:51;;;;;;;0.50;0.47;;;12.40;99.90;;;;;;5074468;28;20181;-78
2022/03/14 09:53:18;;;;;;;0.10;0.10;;;12.60;99.90;;;;;;5075316;28;20200;-78
2022/03/14 09:55:47;;;;;;;0.60;0.50;;;12.90;99.90;;;;;;5075470;28;20529;-79
2022/03/14 09:58:14;;;;;;;1.73;0.97;;;12.60;99.90;;;;;;5075769;28;20176;-79
2022/03/14 10:00:40;;;;;;;0.83;0.43;;;12.40;99.90;;;;;;5075583;28;20255;-79
2022/03/14 10:03:06;;;;;;;4.20;1.07;;;12.50;99.90;;;;;;5074055;28;20212;-79
2022/03/14 10:05:32;;;;;;;1.10;0.77;;;12.70;99.90;;;;;;5076009;28;20282;-79
2022/03/14 10:07:57;;;;;;;0.63;0.63;;;12.40;99.90;;;;;;5076292;28;20286;-79
2022/03/14 10:10:23;;;;;;;1.53;0.93;;;12.10;99.90;;;;;;5074425;28;20176;-79
2022/03/14 10:12:52;;;;;;;1.20;1.10;;;12.20;99.90;;;;;;5073992;28;20210;-79
2022/03/14 10:15:19;;;;;;;0.10;0.10;;;12.40;99.90;;;;;;5075276;28;20176;-79
2022/03/14 10:17:45;;;;;;;0.60;0.60;;;12.30;99.90;;;;;;5075118;28;20647;-79
2022/03/14 10:20:14;;;;;;;0.63;0.63;;;12.10;99.90;;;;;;5074161;28;20231;-78
2022/03/14 10:22:40;;;;;;;1.60;1.50;;;12.30;99.90;;;;;;5062035;28;20200;-79
2022/03/14 10:25:14;;;;;;;1.70;1.60;;;12.50;99.90;;;;;;5075777;28;20225;-79
2022/03/14 10:27:45;;;;;;;0.97;0.57;;;12.40;99.90;;;;;;5076197;28;20581;-79
2022/03/14 10:30:46;;;;;;;0.27;0.27;;;12.60;99.90;;;;;;5074734;28;20659;-78
2022/03/14 10:33:12;;;;;;;0.83;0.80;;;12.70;99.90;;;;;;5064583;28;20201;-79
2022/03/14 10:35:43;;;;;;;0.50;0.50;;;13.20;99.90;;;;;;5076456;28;20603;-79
2022/03/14 10:38:11;;;;;;;0.70;0.67;;;12.90;99.90;;;;;;5076250;28;20168;-79
2022/03/14 10:40:42;;;;;;;0.43;0.43;;;12.70;99.90;;;;;;5074590;28;20181;-79
2022/03/14 10:43:31;;;;;;;0.47;0.47;;;13.20;99.90;;;;;;5074537;28;20211;-78
2022/03/14 10:45:58;;;;;;;0.70;0.70;;;12.40;99.90;;;;;;5075790;28;20594;-78
2022/03/14 10:48:43;;;;;;;0.73;0.73;;;12.20;99.90;;;;;;5076002;28;20174;-79
2022/03/14 10:51:18;;;;;;;0.73;0.73;;;12.10;99.90;;;;;;5075453;28;20799;-79
2022/03/14 10:53:47;;;;;;;0.10;0.10;;;12.10;99.90;;;;;;5073654;28;20302;-78
2022/03/14 10:56:14;;;;;;;0.23;0.23;;;12.40;99.90;;;;;;5074601;28;20183;-79
2022/03/14 10:58:40;;;;;;;0.20;0.20;;;12.50;99.90;;;;;;5074737;28;20578;-80
2022/03/14 11:01:07;;;;;;;0.53;0.40;;;12.30;99.90;;;;;;5075361;28;20179;-80
2022/03/14 11:03:33;;;;;;;0.97;0.93;;;12.30;99.90;;;;;;5075451;28;20200;-78
2022/03/14 11:06:10;;;;;;;1.67;1.53;;;12.40;99.90;;;;;;5076355;28;20243;-79
2022/03/14 11:08:38;;;;;;;0.73;0.70;;;12.40;99.90;;;;;;5076610;28;20182;-79
2022/03/14 11:11:04;;;;;;;0.30;0.30;;;12.20;99.90;;;;;;5075836;28;20607;-78
2022/03/14 11:13:30;;;;;;;0.47;0.47;;;12.10;99.90;;;;;;5075253;28;20207;-78
2022/03/14 11:15:56;;;;;;;2.40;1.80;;;12.10;99.90;;;;;;5076062;28;20211;-78
2022/03/14 11:18:24;;;;;;;0.40;0.40;;;12.20;99.90;;;;;;5074628;28;20180;-77
2022/03/14 11:20:51;;;;;;;2.00;1.13;;;12.10;99.90;;;;;;5075389;28;20183;-79
2022/03/14 11:23:18;;;;;;;0.70;0.50;;;12.00;99.90;;;;;;5075397;28;20247;-79
2022/03/14 11:25:44;;;;;;;1.07;1.03;;;12.20;99.90;;;;;;5075644;28;20177;-79
2022/03/14 11:28:20;;;;;;;0.97;0.97;;;12.20;99.90;;;;;;5073563;28;20322;-79
2022/03/14 11:31:00;;;;;;;0.60;0.60;;;12.20;99.90;;;;;;5074959;28;20461;-78
2022/03/14 11:33:29;;;;;;;0.30;0.30;;;12.20;99.90;;;;;;5057646;28;20307;-79
2022/03/14 11:35:54;;;;;;;0.20;0.20;;;12.40;99.90;;;;;;5075845;28;20168;-80
2022/03/14 11:38:20;;;;;;;0.20;0.20;;;12.50;99.90;;;;;;5076728;28;20179;-78
2022/03/14 11:40:48;;;;;;;0.10;0.10;;;12.40;99.90;;;;;;5077092;28;20176;-79
2022/03/14 11:43:14;;;;;;;0.30;0.30;;;12.30;99.90;;;;;;5082768;28;20196;-80
2022/03/14 11:45:41;;;;;;;0.60;0.60;;;12.40;99.90;;;;;;5086912;28;20228;-79
2022/03/14 11:48:07;;;;;;;0.10;0.10;;;12.30;99.90;;;;;;5082808;28;20179;-78
2022/03/14 11:50:43;;;;;;;0.20;0.20;;;12.20;99.90;;;;;;5084777;28;20176;-79
2022/03/14 11:53:09;;;;;;;0.53;0.33;;;12.30;99.90;;;;;;5076031;28;20241;-80
2022/03/14 11:55:35;;;;;;;0.33;0.33;;;12.20;99.90;;;;;;5075829;28;20335;-80
2022/03/14 11:58:00;;;;;;;1.50;0.97;;;12.10;99.90;;;;;;5074246;28;20305;-79
2022/03/14 12:00:32;;;;;;;0.40;0.40;;;12.10;99.90;;;;;;5075511;28;20668;-79
2022/03/14 12:03:01;;;;;;;0.30;0.30;;;12.10;99.90;;;;;;5075249;28;20239;-79
2022/03/14 12:05:35;;;;;;;0.10;0.10;;;12.20;99.90;;;;;;5075132;28;20187;-79
2022/03/14 12:08:13;;;;;;;1.77;0.90;;;12.20;99.90;;;;;;5074649;28;20675;-80
2022/03/14 12:10:39;;;;;;;0.10;0.10;;;12.40;99.90;;;;;;5075698;28;20175;-79
2022/03/14 12:13:04;;;;;;;0.67;0.53;;;12.80;99.90;;;;;;5072628;28;20215;-79
2022/03/14 12:15:36;;;;;;;1.40;1.30;;;13.10;99.90;;;;;;5072731;28;20183;-79
2022/03/14 12:18:02;;;;;;;0.20;0.20;;;13.20;99.90;;;;;;5073564;28;20547;-79
2022/03/14 12:20:29;;;;;;;0.30;0.30;;;13.50;99.90;;;;;;5072402;28;20181;-78
2022/03/14 12:22:55;;;;;;;0.10;0.10;;;13.50;99.90;;;;;;5072480;28;20594;-79
2022/03/14 12:25:42;;;;;;;0.10;0.10;;;13.10;99.90;;;;;;5072658;28;20172;-78
2022/03/14 12:28:31;;;;;;;0.57;0.53;;;13.00;99.90;;;;;;5072832;28;20267;-78
2022/03/14 12:31:03;;;;;;;1.60;1.47;;;13.10;99.90;;;;;;5071163;28;20190;-79
2022/03/14 12:33:36;;;;;;;0.60;0.60;;;13.40;99.90;;;;;;5072143;28;20200;-79
2022/03/14 12:36:31;;;;;;;0.50;0.50;;;13.30;99.90;;;;;;5072908;28;20777;-79
2022/03/14 12:39:09;;;;;;;0.37;0.37;;;12.70;99.90;;;;;;5072993;28;20246;-78
2022/03/14 12:41:39;;;;;;;1.07;0.70;;;12.90;99.90;;;;;;5066235;28;20203;-79
2022/03/14 12:44:24;;;;;;;1.47;1.20;;;13.10;99.90;;;;;;5083996;28;20172;-79
2022/03/14 12:46:53;;;;;;;0.50;0.50;;;13.20;99.90;;;;;;5081739;28;20210;-79
2022/03/14 12:49:37;;;;;;;0.20;0.20;;;13.30;99.90;;;;;;5076194;28;20663;-78
2022/03/14 12:52:28;;;;;;;1.13;1.13;;;13.10;99.90;;;;;;5081255;28;20215;-80